sensor_id;sensor_type;location;lat;lon;timestamp;P1;durP1;ratioP1;P2;durP2;ratioP2
21751;SDS011;11038;50.940;20.564;2022-10-26T00:00:32;1048.00;;;76.07;;
21751;SDS011;11038;50.940;20.564;2022-10-26T00:02:24;926.53;;;64.07;;
21751;SDS011;11038;50.940;20.564;2022-10-26T00:03:56;721.17;;;55.47;;
21751;SDS011;11038;50.940;20.564;2022-10-26T00:05:31;1154.67;;;74.30;;
21751;SDS011;11038;50.940;20.564;2022-10-26T00:07:04;689.60;;;59.57;;
21751;SDS011;11038;50.940;20.564;2022-10-26T00:08:37;967.93;;;73.27;;
21751;SDS011;11038;50.940;20.564;2022-10-26T00:10:10;670.87;;;58.60;;
21751;SDS011;11038;50.940;20.564;2022-10-26T00:11:43;285.83;;;39.43;;
21751;SDS011;11038;50.940;20.564;2022-10-26T00:13:15;623.90;;;60.23;;
21751;SDS011;11038;50.940;20.564;2022-10-26T00:14:48;343.50;;;43.70;;
21751;SDS011;11038;50.940;20.564;2022-10-26T00:16:22;536.90;;;54.93;;
21751;SDS011;11038;50.940;20.564;2022-10-26T00:17:57;641.37;;;59.63;;
21751;SDS011;11038;50.940;20.564;2022-10-26T00:19:31;583.47;;;53.17;;
21751;SDS011;11038;50.940;20.564;2022-10-26T00:21:06;691.00;;;61.53;;
21751;SDS011;11038;50.940;20.564;2022-10-26T00:22:41;856.97;;;71.20;;
21751;SDS011;11038;50.940;20.564;2022-10-26T00:24:13;555.27;;;53.03;;
21751;SDS011;11038;50.940;20.564;2022-10-26T00:25:54;484.50;;;50.93;;
21751;SDS011;11038;50.940;20.564;2022-10-26T00:27:28;751.37;;;63.93;;
21751;SDS011;11038;50.940;20.564;2022-10-26T00:29:00;742.20;;;63.63;;
21751;SDS011;11038;50.940;20.564;2022-10-26T00:30:33;849.80;;;65.03;;
21751;SDS011;11038;50.940;20.564;2022-10-26T00:32:09;760.60;;;69.27;;
21751;SDS011;11038;50.940;20.564;2022-10-26T00:33:42;945.33;;;70.50;;
21751;SDS011;11038;50.940;20.564;2022-10-26T00:35:14;1005.40;;;73.73;;
21751;SDS011;11038;50.940;20.564;2022-10-26T00:36:59;1072.77;;;70.50;;
21751;SDS011;11038;50.940;20.564;2022-10-26T00:38:31;736.57;;;57.37;;
21751;SDS011;11038;50.940;20.564;2022-10-26T00:40:04;885.67;;;66.47;;
21751;SDS011;11038;50.940;20.564;2022-10-26T00:41:37;861.23;;;63.97;;
21751;SDS011;11038;50.940;20.564;2022-10-26T00:44:57;594.20;;;55.87;;
21751;SDS011;11038;50.940;20.564;2022-10-26T00:46:36;823.67;;;66.70;;
21751;SDS011;11038;50.940;20.564;2022-10-26T00:48:14;276.47;;;40.67;;
21751;SDS011;11038;50.940;20.564;2022-10-26T00:50:00;820.83;;;69.73;;
21751;SDS011;11038;50.940;20.564;2022-10-26T00:51:40;787.23;;;63.43;;
21751;SDS011;11038;50.940;20.564;2022-10-26T00:53:19;896.97;;;72.83;;
21751;SDS011;11038;50.940;20.564;2022-10-26T00:54:51;730.13;;;62.63;;
21751;SDS011;11038;50.940;20.564;2022-10-26T00:56:24;613.60;;;57.17;;
21751;SDS011;11038;50.940;20.564;2022-10-26T00:57:59;864.57;;;70.70;;
21751;SDS011;11038;50.940;20.564;2022-10-26T00:59:36;562.93;;;55.40;;
21751;SDS011;11038;50.940;20.564;2022-10-26T01:01:08;767.50;;;62.97;;
21751;SDS011;11038;50.940;20.564;2022-10-26T01:02:42;856.53;;;67.87;;
21751;SDS011;11038;50.940;20.564;2022-10-26T01:04:17;561.37;;;56.33;;
21751;SDS011;11038;50.940;20.564;2022-10-26T01:05:50;384.50;;;43.17;;
21751;SDS011;11038;50.940;20.564;2022-10-26T01:07:27;504.37;;;47.07;;
21751;SDS011;11038;50.940;20.564;2022-10-26T01:09:00;282.73;;;37.47;;
21751;SDS011;11038;50.940;20.564;2022-10-26T01:10:32;455.00;;;45.07;;
21751;SDS011;11038;50.940;20.564;2022-10-26T01:12:08;369.53;;;43.00;;
21751;SDS011;11038;50.940;20.564;2022-10-26T01:13:41;741.10;;;61.77;;
21751;SDS011;11038;50.940;20.564;2022-10-26T01:15:16;535.97;;;54.27;;
21751;SDS011;11038;50.940;20.564;2022-10-26T01:17:20;679.30;;;60.03;;
21751;SDS011;11038;50.940;20.564;2022-10-26T01:30:47;363.17;;;43.30;;
21751;SDS011;11038;50.940;20.564;2022-10-26T01:34:45;599.80;;;55.03;;
21751;SDS011;11038;50.940;20.564;2022-10-26T01:36:43;307.70;;;43.50;;
21751;SDS011;11038;50.940;20.564;2022-10-26T01:40:23;606.00;;;57.37;;
21751;SDS011;11038;50.940;20.564;2022-10-26T01:42:03;658.20;;;59.33;;
21751;SDS011;11038;50.940;20.564;2022-10-26T01:43:42;510.93;;;53.73;;
21751;SDS011;11038;50.940;20.564;2022-10-26T01:45:41;992.70;;;74.30;;
21751;SDS011;11038;50.940;20.564;2022-10-26T01:47:18;411.53;;;45.73;;
21751;SDS011;11038;50.940;20.564;2022-10-26T01:48:54;808.90;;;64.43;;
21751;SDS011;11038;50.940;20.564;2022-10-26T01:50:35;767.33;;;65.50;;
21751;SDS011;11038;50.940;20.564;2022-10-26T01:52:10;381.90;;;46.53;;
21751;SDS011;11038;50.940;20.564;2022-10-26T01:53:45;242.83;;;40.57;;
21751;SDS011;11038;50.940;20.564;2022-10-26T01:57:16;673.57;;;62.40;;
21751;SDS011;11038;50.940;20.564;2022-10-26T02:07:07;391.20;;;51.33;;
21751;SDS011;11038;50.940;20.564;2022-10-26T02:09:07;309.33;;;43.77;;
21751;SDS011;11038;50.940;20.564;2022-10-26T02:14:42;766.53;;;67.10;;
21751;SDS011;11038;50.940;20.564;2022-10-26T02:16:59;365.40;;;46.10;;
21751;SDS011;11038;50.940;20.564;2022-10-26T02:18:44;583.37;;;55.13;;
21751;SDS011;11038;50.940;20.564;2022-10-26T02:20:27;842.63;;;66.10;;
21751;SDS011;11038;50.940;20.564;2022-10-26T02:22:19;466.40;;;47.53;;
21751;SDS011;11038;50.940;20.564;2022-10-26T02:24:04;586.43;;;54.13;;
21751;SDS011;11038;50.940;20.564;2022-10-26T02:25:49;947.37;;;70.13;;
21751;SDS011;11038;50.940;20.564;2022-10-26T02:27:30;882.87;;;65.77;;
21751;SDS011;11038;50.940;20.564;2022-10-26T02:29:08;915.50;;;64.43;;
21751;SDS011;11038;50.940;20.564;2022-10-26T02:30:49;727.97;;;62.10;;
21751;SDS011;11038;50.940;20.564;2022-10-26T02:32:28;549.33;;;47.80;;
21751;SDS011;11038;50.940;20.564;2022-10-26T02:34:06;693.57;;;51.40;;
21751;SDS011;11038;50.940;20.564;2022-10-26T02:35:45;1079.27;;;74.17;;
21751;SDS011;11038;50.940;20.564;2022-10-26T02:37:22;911.90;;;66.90;;
21751;SDS011;11038;50.940;20.564;2022-10-26T02:38:58;842.07;;;64.30;;
21751;SDS011;11038;50.940;20.564;2022-10-26T02:40:35;628.90;;;52.87;;
21751;SDS011;11038;50.940;20.564;2022-10-26T02:42:09;519.10;;;47.07;;
21751;SDS011;11038;50.940;20.564;2022-10-26T02:43:47;642.97;;;51.27;;
21751;SDS011;11038;50.940;20.564;2022-10-26T02:45:55;497.33;;;44.43;;
21751;SDS011;11038;50.940;20.564;2022-10-26T02:47:42;495.07;;;48.53;;
21751;SDS011;11038;50.940;20.564;2022-10-26T02:49:14;260.70;;;38.77;;
21751;SDS011;11038;50.940;20.564;2022-10-26T02:50:52;682.80;;;57.57;;
21751;SDS011;11038;50.940;20.564;2022-10-26T02:52:52;439.80;;;43.77;;
21751;SDS011;11038;50.940;20.564;2022-10-26T02:54:52;679.90;;;58.63;;
21751;SDS011;11038;50.940;20.564;2022-10-26T02:56:35;403.23;;;48.40;;
21751;SDS011;11038;50.940;20.564;2022-10-26T02:58:24;439.87;;;48.70;;
21751;SDS011;11038;50.940;20.564;2022-10-26T03:00:09;565.13;;;53.00;;
21751;SDS011;11038;50.940;20.564;2022-10-26T03:01:46;433.70;;;48.73;;
21751;SDS011;11038;50.940;20.564;2022-10-26T03:03:21;320.87;;;45.50;;
21751;SDS011;11038;50.940;20.564;2022-10-26T03:04:54;435.60;;;50.33;;
21751;SDS011;11038;50.940;20.564;2022-10-26T03:06:28;445.50;;;53.70;;
21751;SDS011;11038;50.940;20.564;2022-10-26T03:08:00;376.00;;;50.57;;
21751;SDS011;11038;50.940;20.564;2022-10-26T03:09:33;272.03;;;44.20;;
21751;SDS011;11038;50.940;20.564;2022-10-26T03:11:05;339.77;;;50.10;;
21751;SDS011;11038;50.940;20.564;2022-10-26T03:12:37;259.37;;;44.67;;
21751;SDS011;11038;50.940;20.564;2022-10-26T03:14:10;275.27;;;47.43;;
21751;SDS011;11038;50.940;20.564;2022-10-26T03:15:42;183.03;;;40.70;;
21751;SDS011;11038;50.940;20.564;2022-10-26T03:17:14;209.03;;;43.33;;
21751;SDS011;11038;50.940;20.564;2022-10-26T03:18:47;319.77;;;47.47;;
21751;SDS011;11038;50.940;20.564;2022-10-26T03:20:19;271.87;;;45.00;;
21751;SDS011;11038;50.940;20.564;2022-10-26T03:21:51;175.17;;;40.00;;
21751;SDS011;11038;50.940;20.564;2022-10-26T03:23:24;556.17;;;60.07;;
21751;SDS011;11038;50.940;20.564;2022-10-26T03:24:56;518.77;;;55.70;;
21751;SDS011;11038;50.940;20.564;2022-10-26T03:26:29;422.57;;;52.70;;
21751;SDS011;11038;50.940;20.564;2022-10-26T03:28:02;570.70;;;58.93;;
21751;SDS011;11038;50.940;20.564;2022-10-26T03:29:35;392.03;;;48.43;;
21751;SDS011;11038;50.940;20.564;2022-10-26T03:31:07;570.90;;;58.87;;
21751;SDS011;11038;50.940;20.564;2022-10-26T03:32:40;236.00;;;40.90;;
21751;SDS011;11038;50.940;20.564;2022-10-26T03:34:12;460.33;;;49.20;;
21751;SDS011;11038;50.940;20.564;2022-10-26T03:35:45;579.90;;;52.83;;
21751;SDS011;11038;50.940;20.564;2022-10-26T03:37:17;397.73;;;45.47;;
21751;SDS011;11038;50.940;20.564;2022-10-26T03:38:49;635.63;;;55.90;;
21751;SDS011;11038;50.940;20.564;2022-10-26T03:40:21;604.70;;;53.97;;
21751;SDS011;11038;50.940;20.564;2022-10-26T03:41:54;523.83;;;51.53;;
21751;SDS011;11038;50.940;20.564;2022-10-26T03:43:26;695.00;;;58.40;;
21751;SDS011;11038;50.940;20.564;2022-10-26T03:44:59;349.60;;;39.87;;
21751;SDS011;11038;50.940;20.564;2022-10-26T03:46:32;409.13;;;43.13;;
21751;SDS011;11038;50.940;20.564;2022-10-26T03:48:04;480.30;;;45.00;;
21751;SDS011;11038;50.940;20.564;2022-10-26T03:49:37;340.77;;;38.90;;
21751;SDS011;11038;50.940;20.564;2022-10-26T03:51:09;390.73;;;41.70;;
21751;SDS011;11038;50.940;20.564;2022-10-26T03:52:42;703.73;;;61.23;;
21751;SDS011;11038;50.940;20.564;2022-10-26T03:54:17;458.50;;;41.30;;
21751;SDS011;11038;50.940;20.564;2022-10-26T03:55:49;520.63;;;45.33;;
21751;SDS011;11038;50.940;20.564;2022-10-26T03:57:22;456.10;;;39.50;;
21751;SDS011;11038;50.940;20.564;2022-10-26T03:58:54;715.33;;;56.63;;
21751;SDS011;11038;50.940;20.564;2022-10-26T04:00:26;525.40;;;46.37;;
21751;SDS011;11038;50.940;20.564;2022-10-26T04:01:59;795.90;;;54.37;;
21751;SDS011;11038;50.940;20.564;2022-10-26T04:03:31;714.43;;;50.53;;
21751;SDS011;11038;50.940;20.564;2022-10-26T04:05:04;529.80;;;40.17;;
21751;SDS011;11038;50.940;20.564;2022-10-26T04:06:37;748.53;;;52.23;;
21751;SDS011;11038;50.940;20.564;2022-10-26T04:08:09;789.87;;;54.00;;
21751;SDS011;11038;50.940;20.564;2022-10-26T04:09:42;480.47;;;37.07;;
21751;SDS011;11038;50.940;20.564;2022-10-26T04:11:18;528.73;;;40.37;;
21751;SDS011;11038;50.940;20.564;2022-10-26T04:12:57;416.23;;;34.23;;
21751;SDS011;11038;50.940;20.564;2022-10-26T04:14:31;473.40;;;38.37;;
21751;SDS011;11038;50.940;20.564;2022-10-26T04:16:04;740.73;;;49.37;;
21751;SDS011;11038;50.940;20.564;2022-10-26T04:17:36;705.77;;;50.87;;
21751;SDS011;11038;50.940;20.564;2022-10-26T04:19:08;460.87;;;35.93;;
21751;SDS011;11038;50.940;20.564;2022-10-26T04:20:41;666.47;;;50.97;;
21751;SDS011;11038;50.940;20.564;2022-10-26T04:22:13;348.20;;;34.43;;
21751;SDS011;11038;50.940;20.564;2022-10-26T04:23:45;748.33;;;50.17;;
21751;SDS011;11038;50.940;20.564;2022-10-26T04:25:18;813.20;;;55.77;;
21751;SDS011;11038;50.940;20.564;2022-10-26T04:26:50;824.47;;;57.33;;
21751;SDS011;11038;50.940;20.564;2022-10-26T04:28:22;451.47;;;37.30;;
21751;SDS011;11038;50.940;20.564;2022-10-26T04:29:55;728.47;;;46.73;;
21751;SDS011;11038;50.940;20.564;2022-10-26T04:31:27;676.97;;;45.10;;
21751;SDS011;11038;50.940;20.564;2022-10-26T04:33:00;392.67;;;36.70;;
21751;SDS011;11038;50.940;20.564;2022-10-26T04:34:34;491.30;;;40.83;;
21751;SDS011;11038;50.940;20.564;2022-10-26T04:36:06;342.00;;;34.67;;
21751;SDS011;11038;50.940;20.564;2022-10-26T04:37:39;205.53;;;29.60;;
21751;SDS011;11038;50.940;20.564;2022-10-26T04:39:11;713.83;;;53.70;;
21751;SDS011;11038;50.940;20.564;2022-10-26T04:40:43;478.67;;;40.67;;
21751;SDS011;11038;50.940;20.564;2022-10-26T04:42:16;775.47;;;55.00;;
21751;SDS011;11038;50.940;20.564;2022-10-26T04:43:48;459.27;;;42.93;;
21751;SDS011;11038;50.940;20.564;2022-10-26T04:45:20;533.43;;;44.67;;
21751;SDS011;11038;50.940;20.564;2022-10-26T04:46:53;522.10;;;44.50;;
21751;SDS011;11038;50.940;20.564;2022-10-26T04:48:25;787.27;;;55.67;;
21751;SDS011;11038;50.940;20.564;2022-10-26T04:49:57;421.63;;;42.70;;
21751;SDS011;11038;50.940;20.564;2022-10-26T04:51:30;597.00;;;49.67;;
21751;SDS011;11038;50.940;20.564;2022-10-26T04:53:08;500.07;;;43.33;;
21751;SDS011;11038;50.940;20.564;2022-10-26T04:54:41;424.03;;;43.17;;
21751;SDS011;11038;50.940;20.564;2022-10-26T04:56:13;556.60;;;44.70;;
21751;SDS011;11038;50.940;20.564;2022-10-26T04:57:46;620.87;;;50.30;;
21751;SDS011;11038;50.940;20.564;2022-10-26T04:59:19;399.23;;;39.43;;
21751;SDS011;11038;50.940;20.564;2022-10-26T05:00:51;260.50;;;34.70;;
21751;SDS011;11038;50.940;20.564;2022-10-26T05:02:23;250.73;;;34.27;;
21751;SDS011;11038;50.940;20.564;2022-10-26T05:03:56;578.60;;;46.40;;
21751;SDS011;11038;50.940;20.564;2022-10-26T05:05:29;715.60;;;52.13;;
21751;SDS011;11038;50.940;20.564;2022-10-26T05:07:04;407.57;;;39.73;;
21751;SDS011;11038;50.940;20.564;2022-10-26T05:08:37;368.50;;;37.37;;
21751;SDS011;11038;50.940;20.564;2022-10-26T05:10:09;409.60;;;42.17;;
21751;SDS011;11038;50.940;20.564;2022-10-26T05:11:41;576.30;;;43.77;;
21751;SDS011;11038;50.940;20.564;2022-10-26T05:13:13;484.67;;;41.43;;
21751;SDS011;11038;50.940;20.564;2022-10-26T05:14:46;677.37;;;50.30;;
21751;SDS011;11038;50.940;20.564;2022-10-26T05:16:19;305.43;;;32.57;;
21751;SDS011;11038;50.940;20.564;2022-10-26T05:17:55;610.97;;;47.17;;
21751;SDS011;11038;50.940;20.564;2022-10-26T05:19:39;416.70;;;37.87;;
21751;SDS011;11038;50.940;20.564;2022-10-26T05:21:15;334.73;;;32.83;;
21751;SDS011;11038;50.940;20.564;2022-10-26T05:22:51;278.53;;;34.93;;
21751;SDS011;11038;50.940;20.564;2022-10-26T05:24:24;398.83;;;38.00;;
21751;SDS011;11038;50.940;20.564;2022-10-26T05:25:56;372.30;;;36.30;;
21751;SDS011;11038;50.940;20.564;2022-10-26T05:27:28;533.07;;;44.17;;
21751;SDS011;11038;50.940;20.564;2022-10-26T05:29:00;403.87;;;36.17;;
21751;SDS011;11038;50.940;20.564;2022-10-26T05:30:33;393.90;;;38.20;;
21751;SDS011;11038;50.940;20.564;2022-10-26T05:32:06;405.93;;;37.60;;
21751;SDS011;11038;50.940;20.564;2022-10-26T05:33:39;455.03;;;42.17;;
21751;SDS011;11038;50.940;20.564;2022-10-26T05:35:11;511.20;;;43.07;;
21751;SDS011;11038;50.940;20.564;2022-10-26T05:36:44;271.93;;;34.67;;
21751;SDS011;11038;50.940;20.564;2022-10-26T05:38:16;480.57;;;42.87;;
21751;SDS011;11038;50.940;20.564;2022-10-26T05:39:49;370.73;;;37.70;;
21751;SDS011;11038;50.940;20.564;2022-10-26T05:41:21;351.60;;;36.70;;
21751;SDS011;11038;50.940;20.564;2022-10-26T05:42:58;465.73;;;43.57;;
21751;SDS011;11038;50.940;20.564;2022-10-26T05:44:34;189.37;;;31.63;;
21751;SDS011;11038;50.940;20.564;2022-10-26T05:46:06;240.77;;;33.20;;
21751;SDS011;11038;50.940;20.564;2022-10-26T05:47:39;448.50;;;43.63;;
21751;SDS011;11038;50.940;20.564;2022-10-26T05:49:12;466.37;;;45.73;;
21751;SDS011;11038;50.940;20.564;2022-10-26T05:50:46;351.10;;;38.80;;
21751;SDS011;11038;50.940;20.564;2022-10-26T05:52:19;387.47;;;38.83;;
21751;SDS011;11038;50.940;20.564;2022-10-26T05:53:52;387.50;;;38.17;;
21751;SDS011;11038;50.940;20.564;2022-10-26T05:55:25;526.10;;;47.00;;
21751;SDS011;11038;50.940;20.564;2022-10-26T05:56:58;319.03;;;37.47;;
21751;SDS011;11038;50.940;20.564;2022-10-26T05:58:31;410.63;;;39.93;;
21751;SDS011;11038;50.940;20.564;2022-10-26T06:00:07;184.60;;;29.37;;
21751;SDS011;11038;50.940;20.564;2022-10-26T06:07:28;449.23;;;39.07;;
21751;SDS011;11038;50.940;20.564;2022-10-26T06:09:00;429.93;;;40.17;;
21751;SDS011;11038;50.940;20.564;2022-10-26T06:10:33;374.13;;;38.93;;
21751;SDS011;11038;50.940;20.564;2022-10-26T06:12:06;254.87;;;32.27;;
21751;SDS011;11038;50.940;20.564;2022-10-26T06:13:44;341.67;;;36.77;;
21751;SDS011;11038;50.940;20.564;2022-10-26T06:15:18;500.20;;;42.90;;
21751;SDS011;11038;50.940;20.564;2022-10-26T06:16:58;468.60;;;41.00;;
21751;SDS011;11038;50.940;20.564;2022-10-26T06:29:19;410.73;;;36.47;;
21751;SDS011;11038;50.940;20.564;2022-10-26T06:31:20;129.00;;;26.40;;
21751;SDS011;11038;50.940;20.564;2022-10-26T06:32:53;348.40;;;34.73;;
21751;SDS011;11038;50.940;20.564;2022-10-26T06:34:47;327.50;;;31.03;;
21751;SDS011;11038;50.940;20.564;2022-10-26T06:36:23;448.93;;;39.53;;
21751;SDS011;11038;50.940;20.564;2022-10-26T06:37:59;365.63;;;34.40;;
21751;SDS011;11038;50.940;20.564;2022-10-26T06:39:39;404.30;;;35.07;;
21751;SDS011;11038;50.940;20.564;2022-10-26T06:41:24;520.50;;;39.67;;
21751;SDS011;11038;50.940;20.564;2022-10-26T06:42:58;619.07;;;43.93;;
21751;SDS011;11038;50.940;20.564;2022-10-26T06:44:31;321.03;;;32.33;;
21751;SDS011;11038;50.940;20.564;2022-10-26T06:46:07;230.90;;;31.27;;
21751;SDS011;11038;50.940;20.564;2022-10-26T06:48:09;179.77;;;28.17;;
21751;SDS011;11038;50.940;20.564;2022-10-26T06:50:01;427.27;;;36.17;;
21751;SDS011;11038;50.940;20.564;2022-10-26T06:51:58;705.13;;;46.80;;
21751;SDS011;11038;50.940;20.564;2022-10-26T06:53:56;108.87;;;25.47;;
21751;SDS011;11038;50.940;20.564;2022-10-26T06:55:43;955.53;;;72.13;;
21751;SDS011;11038;50.940;20.564;2022-10-26T06:57:21;157.13;;;40.37;;
21751;SDS011;11038;50.940;20.564;2022-10-26T06:58:59;198.60;;;56.17;;
21751;SDS011;11038;50.940;20.564;2022-10-26T07:00:45;370.50;;;63.60;;
21751;SDS011;11038;50.940;20.564;2022-10-26T07:02:21;260.00;;;46.00;;
21751;SDS011;11038;50.940;20.564;2022-10-26T07:03:54;165.33;;;37.63;;
21751;SDS011;11038;50.940;20.564;2022-10-26T07:05:26;271.33;;;37.60;;
21751;SDS011;11038;50.940;20.564;2022-10-26T07:06:59;215.67;;;35.27;;
21751;SDS011;11038;50.940;20.564;2022-10-26T07:08:31;302.87;;;37.27;;
21751;SDS011;11038;50.940;20.564;2022-10-26T07:10:04;211.13;;;35.33;;
21751;SDS011;11038;50.940;20.564;2022-10-26T07:11:37;191.40;;;33.90;;
21751;SDS011;11038;50.940;20.564;2022-10-26T07:13:09;213.93;;;33.20;;
21751;SDS011;11038;50.940;20.564;2022-10-26T07:14:42;155.37;;;27.97;;
21751;SDS011;11038;50.940;20.564;2022-10-26T07:16:15;200.70;;;29.03;;
21751;SDS011;11038;50.940;20.564;2022-10-26T07:17:48;150.80;;;27.33;;
21751;SDS011;11038;50.940;20.564;2022-10-26T07:19:21;220.57;;;27.93;;
21751;SDS011;11038;50.940;20.564;2022-10-26T07:20:54;207.60;;;28.17;;
21751;SDS011;11038;50.940;20.564;2022-10-26T07:22:29;208.13;;;27.73;;
21751;SDS011;11038;50.940;20.564;2022-10-26T07:24:01;190.30;;;26.07;;
21751;SDS011;11038;50.940;20.564;2022-10-26T07:25:34;258.70;;;27.07;;
21751;SDS011;11038;50.940;20.564;2022-10-26T07:27:11;174.63;;;24.57;;
21751;SDS011;11038;50.940;20.564;2022-10-26T07:28:43;163.27;;;24.67;;
21751;SDS011;11038;50.940;20.564;2022-10-26T07:30:20;209.00;;;24.10;;
21751;SDS011;11038;50.940;20.564;2022-10-26T07:31:53;166.20;;;23.00;;
21751;SDS011;11038;50.940;20.564;2022-10-26T07:33:30;152.07;;;22.77;;
21751;SDS011;11038;50.940;20.564;2022-10-26T07:35:02;254.27;;;24.80;;
21751;SDS011;11038;50.940;20.564;2022-10-26T07:36:35;141.97;;;21.30;;
21751;SDS011;11038;50.940;20.564;2022-10-26T07:38:09;213.77;;;23.43;;
21751;SDS011;11038;50.940;20.564;2022-10-26T07:39:44;333.80;;;24.77;;
21751;SDS011;11038;50.940;20.564;2022-10-26T07:41:16;614.50;;;35.00;;
21751;SDS011;11038;50.940;20.564;2022-10-26T07:42:48;92.50;;;21.40;;
21751;SDS011;11038;50.940;20.564;2022-10-26T07:44:21;125.90;;;22.33;;
21751;SDS011;11038;50.940;20.564;2022-10-26T07:45:53;178.57;;;22.07;;
21751;SDS011;11038;50.940;20.564;2022-10-26T07:47:26;89.30;;;21.20;;
21751;SDS011;11038;50.940;20.564;2022-10-26T07:48:58;123.20;;;25.40;;
21751;SDS011;11038;50.940;20.564;2022-10-26T07:50:30;148.97;;;31.13;;
21751;SDS011;11038;50.940;20.564;2022-10-26T07:52:02;48.50;;;24.03;;
21751;SDS011;11038;50.940;20.564;2022-10-26T07:53:35;150.60;;;25.67;;
21751;SDS011;11038;50.940;20.564;2022-10-26T07:55:08;140.27;;;25.03;;
21751;SDS011;11038;50.940;20.564;2022-10-26T07:56:42;123.33;;;25.10;;
21751;SDS011;11038;50.940;20.564;2022-10-26T07:58:14;114.07;;;22.23;;
21751;SDS011;11038;50.940;20.564;2022-10-26T07:59:46;50.83;;;21.37;;
21751;SDS011;11038;50.940;20.564;2022-10-26T08:01:19;82.10;;;20.83;;
21751;SDS011;11038;50.940;20.564;2022-10-26T08:02:51;94.00;;;22.87;;
21751;SDS011;11038;50.940;20.564;2022-10-26T08:04:25;191.33;;;24.80;;
21751;SDS011;11038;50.940;20.564;2022-10-26T08:05:57;133.47;;;23.23;;
21751;SDS011;11038;50.940;20.564;2022-10-26T08:07:29;52.97;;;22.07;;
21751;SDS011;11038;50.940;20.564;2022-10-26T08:09:02;137.57;;;22.63;;
21751;SDS011;11038;50.940;20.564;2022-10-26T08:10:34;117.70;;;22.67;;
21751;SDS011;11038;50.940;20.564;2022-10-26T08:12:07;247.20;;;22.70;;
21751;SDS011;11038;50.940;20.564;2022-10-26T08:13:39;174.80;;;22.03;;
21751;SDS011;11038;50.940;20.564;2022-10-26T08:15:12;109.37;;;22.37;;
21751;SDS011;11038;50.940;20.564;2022-10-26T08:16:44;79.17;;;21.43;;
21751;SDS011;11038;50.940;20.564;2022-10-26T08:18:16;93.00;;;22.00;;
21751;SDS011;11038;50.940;20.564;2022-10-26T08:19:49;163.77;;;20.80;;
21751;SDS011;11038;50.940;20.564;2022-10-26T08:21:21;138.60;;;21.77;;
21751;SDS011;11038;50.940;20.564;2022-10-26T08:23:09;108.97;;;21.33;;
21751;SDS011;11038;50.940;20.564;2022-10-26T08:24:42;79.03;;;21.60;;
21751;SDS011;11038;50.940;20.564;2022-10-26T08:26:17;95.00;;;22.77;;
21751;SDS011;11038;50.940;20.564;2022-10-26T08:27:49;59.97;;;21.63;;
21751;SDS011;11038;50.940;20.564;2022-10-26T08:29:22;68.33;;;22.63;;
21751;SDS011;11038;50.940;20.564;2022-10-26T08:30:54;110.37;;;26.83;;
21751;SDS011;11038;50.940;20.564;2022-10-26T08:32:27;72.90;;;23.97;;
21751;SDS011;11038;50.940;20.564;2022-10-26T08:33:59;83.93;;;23.27;;
21751;SDS011;11038;50.940;20.564;2022-10-26T08:35:32;64.10;;;22.60;;
21751;SDS011;11038;50.940;20.564;2022-10-26T08:37:05;43.27;;;20.30;;
21751;SDS011;11038;50.940;20.564;2022-10-26T08:38:38;140.13;;;26.03;;
21751;SDS011;11038;50.940;20.564;2022-10-26T08:40:13;108.20;;;25.70;;
21751;SDS011;11038;50.940;20.564;2022-10-26T08:41:48;85.80;;;23.33;;
21751;SDS011;11038;50.940;20.564;2022-10-26T08:43:45;50.03;;;21.07;;
21751;SDS011;11038;50.940;20.564;2022-10-26T08:47:13;72.60;;;20.10;;
21751;SDS011;11038;50.940;20.564;2022-10-26T08:48:59;86.97;;;21.07;;
21751;SDS011;11038;50.940;20.564;2022-10-26T08:50:51;65.47;;;20.43;;
21751;SDS011;11038;50.940;20.564;2022-10-26T08:54:24;46.13;;;18.97;;
21751;SDS011;11038;50.940;20.564;2022-10-26T08:56:19;45.47;;;18.43;;
21751;SDS011;11038;50.940;20.564;2022-10-26T08:57:58;40.90;;;19.47;;
21751;SDS011;11038;50.940;20.564;2022-10-26T08:59:37;43.20;;;19.57;;
21751;SDS011;11038;50.940;20.564;2022-10-26T09:01:19;39.70;;;19.90;;
21751;SDS011;11038;50.940;20.564;2022-10-26T09:02:51;45.10;;;21.40;;
21751;SDS011;11038;50.940;20.564;2022-10-26T09:04:25;48.43;;;20.10;;
21751;SDS011;11038;50.940;20.564;2022-10-26T09:08:13;39.13;;;22.00;;
21751;SDS011;11038;50.940;20.564;2022-10-26T09:12:08;40.33;;;19.07;;
21751;SDS011;11038;50.940;20.564;2022-10-26T09:22:22;50.30;;;21.07;;
21751;SDS011;11038;50.940;20.564;2022-10-26T09:24:32;65.43;;;21.87;;
21751;SDS011;11038;50.940;20.564;2022-10-26T09:26:12;32.33;;;20.07;;
21751;SDS011;11038;50.940;20.564;2022-10-26T09:27:54;26.83;;;18.10;;
21751;SDS011;11038;50.940;20.564;2022-10-26T09:29:34;24.00;;;17.43;;
21751;SDS011;11038;50.940;20.564;2022-10-26T09:31:12;27.07;;;17.40;;
21751;SDS011;11038;50.940;20.564;2022-10-26T09:32:51;26.57;;;17.43;;
21751;SDS011;11038;50.940;20.564;2022-10-26T09:34:56;26.70;;;17.33;;
21751;SDS011;11038;50.940;20.564;2022-10-26T09:36:36;24.03;;;15.53;;
21751;SDS011;11038;50.940;20.564;2022-10-26T09:40:35;22.27;;;16.13;;
21751;SDS011;11038;50.940;20.564;2022-10-26T09:42:13;27.30;;;17.23;;
21751;SDS011;11038;50.940;20.564;2022-10-26T09:44:28;22.53;;;15.97;;
21751;SDS011;11038;50.940;20.564;2022-10-26T09:46:15;20.93;;;14.63;;
21751;SDS011;11038;50.940;20.564;2022-10-26T09:47:57;20.00;;;15.37;;
21751;SDS011;11038;50.940;20.564;2022-10-26T09:49:43;28.37;;;15.77;;
21751;SDS011;11038;50.940;20.564;2022-10-26T09:51:22;22.47;;;16.37;;
21751;SDS011;11038;50.940;20.564;2022-10-26T09:52:57;21.37;;;16.10;;
21751;SDS011;11038;50.940;20.564;2022-10-26T09:54:29;22.10;;;17.57;;
21751;SDS011;11038;50.940;20.564;2022-10-26T09:56:06;24.00;;;16.17;;
21751;SDS011;11038;50.940;20.564;2022-10-26T09:57:45;23.03;;;15.57;;
21751;SDS011;11038;50.940;20.564;2022-10-26T09:59:24;18.27;;;13.43;;
21751;SDS011;11038;50.940;20.564;2022-10-26T10:01:52;18.93;;;13.90;;
21751;SDS011;11038;50.940;20.564;2022-10-26T10:03:26;20.20;;;13.63;;
21751;SDS011;11038;50.940;20.564;2022-10-26T10:05:03;22.57;;;14.73;;
21751;SDS011;11038;50.940;20.564;2022-10-26T10:07:21;24.20;;;16.30;;
21751;SDS011;11038;50.940;20.564;2022-10-26T10:09:09;23.00;;;16.93;;
21751;SDS011;11038;50.940;20.564;2022-10-26T10:12:45;25.43;;;15.50;;
21751;SDS011;11038;50.940;20.564;2022-10-26T10:14:29;23.90;;;16.07;;
21751;SDS011;11038;50.940;20.564;2022-10-26T10:17:53;24.13;;;17.63;;
21751;SDS011;11038;50.940;20.564;2022-10-26T10:19:33;22.50;;;16.93;;
21751;SDS011;11038;50.940;20.564;2022-10-26T10:21:08;23.40;;;16.97;;
21751;SDS011;11038;50.940;20.564;2022-10-26T10:22:51;23.83;;;17.17;;